Jacumba, CA (91934)

4:14 PM PST on February 07, 2016 (GMT -0800)
DeAnza Springs Resort | | Change Station
CLOSE
Current Station
Personal Weather Station
Location: Jacumba Hot Springs, CA
Elevation: 2736 ft
Nearby Weather Stations

Elev 2736 ft 32.65 °N, 116.18 °W | Updated 34 seconds ago

Clear
Clear
72.1 °F
Feels Like 74 °F
N
3.8
Wind Variable Wind from North
Gusts 5.8 mph

Today
High -- | Low -- °F
--% Chance of Precip.
Yesterday
High -- | Low -- °F
Precip. -- in
Pressure 30.05 in
Visibility -9999.0 miles
Clouds
Heat Index 74 °F
Dew Point 22 °F
Humidity 15%
Rainfall 0.00 in
Snow Depth Not available.
6:35 AM 5:22 PM
Waning Crescent, 1% visible
METAR KCZZ 072352Z AUTO 05015G26KT 21/M09 A3012 RMK AO1 PK WND 07028/2313 SLP175 T02061094 10217 20194 56006
Pressure 30.05 in
Visibility -9999.0 miles
Clouds
Heat Index 74 °F
Dew Point 22 °F
Humidity 15%
Rainfall 0.00 in
Snow Depth Not available.
6:35 AM 5:22 PM
Waning Crescent, 1% visible
METAR KCZZ 072352Z AUTO 05015G26KT 21/M09 A3012 RMK AO1 PK WND 07028/2313 SLP175 T02061094 10217 20194 56006

10-Day Weather Forecast

Almanac

Astronomy

Feb. 07, 2016 Rise Set
Actual Time
Civil Twilight
Nautical Twilight
Astronomical Twilight
Moon
Length of Visible Light
Length of Day
Tomorrow will be .
, % of the Moon is Illuminated

Today's Extremes

State Highs State Lows

Community

WunderPhotos

Upload Photos

1,891,334 photos uploaded!

WunderBlog® & News

Nearby

Air Quality

  Air Quality AQ Index Pollutant
Not available.

Snow Depth

Station Depth Elevation

Earthquake Activity

City Distance Mag. Time & Date
Minimum magnitude displayed is 2.5.

Coastal Water Temperatures

Place Temperature

Stations

Nearby Weather Stations

Station Location Temp. Windchill Dew Point Humidity Wind Precip. Elev Updated Type
                   

Watches & Warnings

There are currently no watches in effect.